sensor_id;sensor_type;location;lat;lon;timestamp;P1;durP1;ratioP1;P2;durP2;ratioP2
14613;SDS011;7393;51.446;6.800;2023-11-21T00:00:37;7.90;;;3.60;;
14613;SDS011;7393;51.446;6.800;2023-11-21T00:03:05;7.90;;;3.70;;
14613;SDS011;7393;51.446;6.800;2023-11-21T00:05:32;7.70;;;4.20;;
14613;SDS011;7393;51.446;6.800;2023-11-21T00:08:00;11.13;;;4.60;;
14613;SDS011;7393;51.446;6.800;2023-11-21T00:10:27;6.87;;;3.67;;
14613;SDS011;7393;51.446;6.800;2023-11-21T00:12:54;8.87;;;3.97;;
14613;SDS011;7393;51.446;6.800;2023-11-21T00:15:21;11.93;;;4.77;;
14613;SDS011;7393;51.446;6.800;2023-11-21T00:17:48;7.70;;;4.27;;
14613;SDS011;7393;51.446;6.800;2023-11-21T00:20:15;9.97;;;4.10;;
14613;SDS011;7393;51.446;6.800;2023-11-21T00:22:42;11.50;;;4.00;;
14613;SDS011;7393;51.446;6.800;2023-11-21T00:25:08;6.90;;;4.03;;
14613;SDS011;7393;51.446;6.800;2023-11-21T00:27:35;9.50;;;3.80;;
14613;SDS011;7393;51.446;6.800;2023-11-21T00:30:02;6.27;;;3.63;;
14613;SDS011;7393;51.446;6.800;2023-11-21T00:32:31;8.17;;;3.87;;
14613;SDS011;7393;51.446;6.800;2023-11-21T00:34:58;8.00;;;4.10;;
14613;SDS011;7393;51.446;6.800;2023-11-21T00:37:27;6.67;;;4.10;;
14613;SDS011;7393;51.446;6.800;2023-11-21T00:39:53;10.43;;;4.10;;
14613;SDS011;7393;51.446;6.800;2023-11-21T00:42:21;7.00;;;4.40;;
14613;SDS011;7393;51.446;6.800;2023-11-21T00:44:48;13.37;;;5.90;;
14613;SDS011;7393;51.446;6.800;2023-11-21T00:47:15;9.73;;;5.27;;
14613;SDS011;7393;51.446;6.800;2023-11-21T00:49:42;11.27;;;4.90;;
14613;SDS011;7393;51.446;6.800;2023-11-21T00:52:09;8.17;;;5.03;;
14613;SDS011;7393;51.446;6.800;2023-11-21T00:54:37;7.90;;;4.70;;
14613;SDS011;7393;51.446;6.800;2023-11-21T00:57:04;9.20;;;4.93;;
14613;SDS011;7393;51.446;6.800;2023-11-21T00:59:31;9.70;;;5.27;;
14613;SDS011;7393;51.446;6.800;2023-11-21T01:01:58;6.03;;;4.20;;
14613;SDS011;7393;51.446;6.800;2023-11-21T01:04:26;5.60;;;4.67;;
14613;SDS011;7393;51.446;6.800;2023-11-21T01:06:53;10.53;;;4.87;;
14613;SDS011;7393;51.446;6.800;2023-11-21T01:09:20;8.87;;;4.70;;
14613;SDS011;7393;51.446;6.800;2023-11-21T01:11:48;7.00;;;4.50;;
14613;SDS011;7393;51.446;6.800;2023-11-21T01:14:17;6.67;;;4.37;;
14613;SDS011;7393;51.446;6.800;2023-11-21T01:16:44;8.90;;;4.60;;
14613;SDS011;7393;51.446;6.800;2023-11-21T01:19:11;6.20;;;4.37;;
14613;SDS011;7393;51.446;6.800;2023-11-21T01:21:38;7.97;;;4.30;;
14613;SDS011;7393;51.446;6.800;2023-11-21T01:24:05;7.50;;;4.80;;
14613;SDS011;7393;51.446;6.800;2023-11-21T01:26:32;7.63;;;4.73;;
14613;SDS011;7393;51.446;6.800;2023-11-21T01:29:00;9.57;;;5.57;;
14613;SDS011;7393;51.446;6.800;2023-11-21T01:31:27;11.53;;;5.80;;
14613;SDS011;7393;51.446;6.800;2023-11-21T01:33:54;8.50;;;5.50;;
14613;SDS011;7393;51.446;6.800;2023-11-21T01:36:21;13.40;;;6.13;;
14613;SDS011;7393;51.446;6.800;2023-11-21T01:38:48;13.37;;;6.30;;
14613;SDS011;7393;51.446;6.800;2023-11-21T01:41:15;10.30;;;6.80;;
14613;SDS011;7393;51.446;6.800;2023-11-21T01:43:42;8.63;;;6.57;;
14613;SDS011;7393;51.446;6.800;2023-11-21T01:46:10;9.00;;;6.30;;
14613;SDS011;7393;51.446;6.800;2023-11-21T01:48:37;9.97;;;6.40;;
14613;SDS011;7393;51.446;6.800;2023-11-21T01:51:04;11.80;;;7.13;;
14613;SDS011;7393;51.446;6.800;2023-11-21T01:53:31;12.17;;;7.17;;
14613;SDS011;7393;51.446;6.800;2023-11-21T01:55:58;12.33;;;8.60;;
14613;SDS011;7393;51.446;6.800;2023-11-21T01:58:25;15.00;;;8.70;;
14613;SDS011;7393;51.446;6.800;2023-11-21T02:00:52;15.87;;;8.60;;
14613;SDS011;7393;51.446;6.800;2023-11-21T02:03:21;15.60;;;8.70;;
14613;SDS011;7393;51.446;6.800;2023-11-21T02:05:48;16.13;;;9.33;;
14613;SDS011;7393;51.446;6.800;2023-11-21T02:08:14;11.87;;;8.87;;
14613;SDS011;7393;51.446;6.800;2023-11-21T02:10:41;18.47;;;9.17;;
14613;SDS011;7393;51.446;6.800;2023-11-21T02:13:08;16.83;;;9.20;;
14613;SDS011;7393;51.446;6.800;2023-11-21T02:15:35;14.27;;;8.80;;
14613;SDS011;7393;51.446;6.800;2023-11-21T02:18:03;14.60;;;8.67;;
14613;SDS011;7393;51.446;6.800;2023-11-21T02:20:32;15.93;;;9.03;;
14613;SDS011;7393;51.446;6.800;2023-11-21T02:23:03;14.67;;;9.40;;
14613;SDS011;7393;51.446;6.800;2023-11-21T02:25:30;16.03;;;9.20;;
14613;SDS011;7393;51.446;6.800;2023-11-21T02:28:00;16.17;;;9.07;;
14613;SDS011;7393;51.446;6.800;2023-11-21T02:30:28;13.97;;;8.53;;
14613;SDS011;7393;51.446;6.800;2023-11-21T02:32:56;15.53;;;8.73;;
14613;SDS011;7393;51.446;6.800;2023-11-21T02:35:24;14.60;;;9.20;;
14613;SDS011;7393;51.446;6.800;2023-11-21T02:37:51;17.57;;;9.00;;
14613;SDS011;7393;51.446;6.800;2023-11-21T02:40:20;13.10;;;8.13;;
14613;SDS011;7393;51.446;6.800;2023-11-21T02:42:47;19.00;;;9.77;;
14613;SDS011;7393;51.446;6.800;2023-11-21T02:45:16;13.33;;;9.33;;
14613;SDS011;7393;51.446;6.800;2023-11-21T02:47:43;15.10;;;9.27;;
14613;SDS011;7393;51.446;6.800;2023-11-21T02:50:10;14.63;;;8.77;;
14613;SDS011;7393;51.446;6.800;2023-11-21T02:52:37;15.03;;;9.17;;
14613;SDS011;7393;51.446;6.800;2023-11-21T02:55:05;13.97;;;9.50;;
14613;SDS011;7393;51.446;6.800;2023-11-21T02:57:34;11.63;;;9.10;;
14613;SDS011;7393;51.446;6.800;2023-11-21T03:00:01;18.10;;;10.07;;
14613;SDS011;7393;51.446;6.800;2023-11-21T03:02:28;13.43;;;9.10;;
14613;SDS011;7393;51.446;6.800;2023-11-21T03:04:55;16.27;;;9.43;;
14613;SDS011;7393;51.446;6.800;2023-11-21T03:07:21;16.40;;;9.77;;
14613;SDS011;7393;51.446;6.800;2023-11-21T03:09:48;17.07;;;9.90;;
14613;SDS011;7393;51.446;6.800;2023-11-21T03:12:15;15.43;;;9.87;;
14613;SDS011;7393;51.446;6.800;2023-11-21T03:14:43;14.10;;;9.73;;
14613;SDS011;7393;51.446;6.800;2023-11-21T03:17:10;16.87;;;10.07;;
14613;SDS011;7393;51.446;6.800;2023-11-21T03:19:40;16.50;;;10.33;;
14613;SDS011;7393;51.446;6.800;2023-11-21T03:22:07;19.87;;;11.47;;
14613;SDS011;7393;51.446;6.800;2023-11-21T03:24:34;17.83;;;10.47;;
14613;SDS011;7393;51.446;6.800;2023-11-21T03:27:03;19.13;;;11.33;;
14613;SDS011;7393;51.446;6.800;2023-11-21T03:29:30;15.60;;;10.90;;
14613;SDS011;7393;51.446;6.800;2023-11-21T03:31:58;18.13;;;11.23;;
14613;SDS011;7393;51.446;6.800;2023-11-21T03:34:26;18.87;;;11.17;;
14613;SDS011;7393;51.446;6.800;2023-11-21T03:36:53;18.23;;;10.77;;
14613;SDS011;7393;51.446;6.800;2023-11-21T03:39:20;19.70;;;11.03;;
14613;SDS011;7393;51.446;6.800;2023-11-21T03:41:48;19.33;;;12.10;;
14613;SDS011;7393;51.446;6.800;2023-11-21T03:44:16;14.37;;;10.53;;
14613;SDS011;7393;51.446;6.800;2023-11-21T03:46:43;18.47;;;11.10;;
14613;SDS011;7393;51.446;6.800;2023-11-21T03:49:12;19.07;;;10.87;;
14613;SDS011;7393;51.446;6.800;2023-11-21T03:51:38;18.63;;;10.30;;
14613;SDS011;7393;51.446;6.800;2023-11-21T03:54:05;18.10;;;10.53;;
14613;SDS011;7393;51.446;6.800;2023-11-21T03:56:32;19.43;;;11.63;;
14613;SDS011;7393;51.446;6.800;2023-11-21T03:58:59;16.70;;;10.30;;
14613;SDS011;7393;51.446;6.800;2023-11-21T04:01:26;19.73;;;10.87;;
14613;SDS011;7393;51.446;6.800;2023-11-21T04:03:53;19.07;;;11.13;;
14613;SDS011;7393;51.446;6.800;2023-11-21T04:06:21;16.80;;;11.13;;
14613;SDS011;7393;51.446;6.800;2023-11-21T04:08:47;19.77;;;11.30;;
14613;SDS011;7393;51.446;6.800;2023-11-21T04:11:14;18.20;;;10.87;;
14613;SDS011;7393;51.446;6.800;2023-11-21T04:13:41;18.77;;;10.80;;
14613;SDS011;7393;51.446;6.800;2023-11-21T04:16:09;16.10;;;10.77;;
14613;SDS011;7393;51.446;6.800;2023-11-21T04:18:36;19.40;;;10.60;;
14613;SDS011;7393;51.446;6.800;2023-11-21T04:21:03;19.70;;;10.80;;
14613;SDS011;7393;51.446;6.800;2023-11-21T04:23:32;21.47;;;11.20;;
14613;SDS011;7393;51.446;6.800;2023-11-21T04:25:59;18.87;;;11.73;;
14613;SDS011;7393;51.446;6.800;2023-11-21T04:28:27;20.63;;;11.90;;
14613;SDS011;7393;51.446;6.800;2023-11-21T04:30:53;17.87;;;10.53;;
14613;SDS011;7393;51.446;6.800;2023-11-21T04:33:20;19.20;;;10.73;;
14613;SDS011;7393;51.446;6.800;2023-11-21T04:35:47;17.90;;;11.10;;
14613;SDS011;7393;51.446;6.800;2023-11-21T04:38:14;22.43;;;12.30;;
14613;SDS011;7393;51.446;6.800;2023-11-21T04:40:42;19.73;;;11.83;;
14613;SDS011;7393;51.446;6.800;2023-11-21T04:43:09;18.07;;;11.50;;
14613;SDS011;7393;51.446;6.800;2023-11-21T04:45:36;20.90;;;12.00;;
14613;SDS011;7393;51.446;6.800;2023-11-21T04:48:03;21.10;;;13.40;;
14613;SDS011;7393;51.446;6.800;2023-11-21T04:50:31;25.23;;;13.33;;
14613;SDS011;7393;51.446;6.800;2023-11-21T04:52:58;20.80;;;12.73;;
14613;SDS011;7393;51.446;6.800;2023-11-21T04:55:25;19.20;;;12.10;;
14613;SDS011;7393;51.446;6.800;2023-11-21T04:57:54;18.90;;;11.70;;
14613;SDS011;7393;51.446;6.800;2023-11-21T05:00:21;19.17;;;11.67;;
14613;SDS011;7393;51.446;6.800;2023-11-21T05:02:49;16.73;;;11.37;;
14613;SDS011;7393;51.446;6.800;2023-11-21T05:05:15;17.30;;;11.40;;
14613;SDS011;7393;51.446;6.800;2023-11-21T05:07:42;22.47;;;12.43;;
14613;SDS011;7393;51.446;6.800;2023-11-21T05:10:09;23.23;;;12.90;;
14613;SDS011;7393;51.446;6.800;2023-11-21T05:12:37;19.13;;;12.33;;
14613;SDS011;7393;51.446;6.800;2023-11-21T05:15:06;20.77;;;13.10;;
14613;SDS011;7393;51.446;6.800;2023-11-21T05:17:35;21.23;;;12.60;;
14613;SDS011;7393;51.446;6.800;2023-11-21T05:20:02;23.07;;;12.90;;
14613;SDS011;7393;51.446;6.800;2023-11-21T05:22:33;18.80;;;11.60;;
14613;SDS011;7393;51.446;6.800;2023-11-21T05:25:00;23.27;;;12.97;;
14613;SDS011;7393;51.446;6.800;2023-11-21T05:27:28;24.13;;;13.20;;
14613;SDS011;7393;51.446;6.800;2023-11-21T05:29:54;21.57;;;12.43;;
14613;SDS011;7393;51.446;6.800;2023-11-21T05:32:23;21.87;;;11.60;;
14613;SDS011;7393;51.446;6.800;2023-11-21T05:34:49;18.77;;;12.40;;
14613;SDS011;7393;51.446;6.800;2023-11-21T05:37:16;20.20;;;13.00;;
14613;SDS011;7393;51.446;6.800;2023-11-21T05:39:43;17.93;;;11.47;;
14613;SDS011;7393;51.446;6.800;2023-11-21T05:42:10;25.30;;;13.43;;
14613;SDS011;7393;51.446;6.800;2023-11-21T05:44:38;22.23;;;13.23;;
14613;SDS011;7393;51.446;6.800;2023-11-21T05:47:08;20.97;;;11.57;;
14613;SDS011;7393;51.446;6.800;2023-11-21T05:49:36;21.37;;;12.97;;
14613;SDS011;7393;51.446;6.800;2023-11-21T05:52:03;19.93;;;11.70;;
14613;SDS011;7393;51.446;6.800;2023-11-21T05:54:31;23.87;;;13.23;;
14613;SDS011;7393;51.446;6.800;2023-11-21T05:56:58;23.77;;;13.50;;
14613;SDS011;7393;51.446;6.800;2023-11-21T05:59:25;21.63;;;12.87;;
14613;SDS011;7393;51.446;6.800;2023-11-21T06:01:52;24.13;;;13.13;;
14613;SDS011;7393;51.446;6.800;2023-11-21T06:04:19;25.43;;;14.20;;
14613;SDS011;7393;51.446;6.800;2023-11-21T06:06:50;22.30;;;14.03;;
14613;SDS011;7393;51.446;6.800;2023-11-21T06:09:17;27.27;;;15.47;;
14613;SDS011;7393;51.446;6.800;2023-11-21T06:11:44;31.63;;;18.87;;
14613;SDS011;7393;51.446;6.800;2023-11-21T06:14:10;33.60;;;17.40;;
14613;SDS011;7393;51.446;6.800;2023-11-21T06:16:37;26.20;;;16.93;;
14613;SDS011;7393;51.446;6.800;2023-11-21T06:19:05;29.63;;;17.57;;
14613;SDS011;7393;51.446;6.800;2023-11-21T06:21:32;30.97;;;18.33;;
14613;SDS011;7393;51.446;6.800;2023-11-21T06:24:00;34.53;;;18.63;;
14613;SDS011;7393;51.446;6.800;2023-11-21T06:26:27;27.40;;;17.83;;
14613;SDS011;7393;51.446;6.800;2023-11-21T06:28:54;33.43;;;20.03;;
14613;SDS011;7393;51.446;6.800;2023-11-21T06:31:22;35.57;;;18.23;;
14613;SDS011;7393;51.446;6.800;2023-11-21T06:33:48;34.30;;;18.97;;
14613;SDS011;7393;51.446;6.800;2023-11-21T06:36:17;31.67;;;18.97;;
14613;SDS011;7393;51.446;6.800;2023-11-21T06:38:43;32.10;;;18.90;;
14613;SDS011;7393;51.446;6.800;2023-11-21T06:41:13;36.70;;;20.53;;
14613;SDS011;7393;51.446;6.800;2023-11-21T06:43:40;34.60;;;19.33;;
14613;SDS011;7393;51.446;6.800;2023-11-21T06:46:10;37.93;;;20.83;;
14613;SDS011;7393;51.446;6.800;2023-11-21T06:48:39;32.37;;;19.90;;
14613;SDS011;7393;51.446;6.800;2023-11-21T06:51:06;40.10;;;21.20;;
14613;SDS011;7393;51.446;6.800;2023-11-21T06:53:33;39.33;;;21.63;;
14613;SDS011;7393;51.446;6.800;2023-11-21T06:56:00;38.83;;;20.63;;
14613;SDS011;7393;51.446;6.800;2023-11-21T06:58:28;39.63;;;21.17;;
14613;SDS011;7393;51.446;6.800;2023-11-21T07:00:54;38.87;;;21.57;;
14613;SDS011;7393;51.446;6.800;2023-11-21T07:03:23;37.97;;;21.70;;
14613;SDS011;7393;51.446;6.800;2023-11-21T07:05:51;40.80;;;21.40;;
14613;SDS011;7393;51.446;6.800;2023-11-21T07:08:17;38.67;;;21.57;;
14613;SDS011;7393;51.446;6.800;2023-11-21T07:10:44;35.50;;;21.50;;
14613;SDS011;7393;51.446;6.800;2023-11-21T07:13:12;40.80;;;21.47;;
14613;SDS011;7393;51.446;6.800;2023-11-21T07:15:40;38.87;;;22.33;;
14613;SDS011;7393;51.446;6.800;2023-11-21T07:18:08;36.07;;;21.00;;
14613;SDS011;7393;51.446;6.800;2023-11-21T07:20:35;36.50;;;21.77;;
14613;SDS011;7393;51.446;6.800;2023-11-21T07:23:02;36.93;;;20.30;;
14613;SDS011;7393;51.446;6.800;2023-11-21T07:25:30;39.53;;;22.37;;
14613;SDS011;7393;51.446;6.800;2023-11-21T07:27:58;42.87;;;22.10;;
14613;SDS011;7393;51.446;6.800;2023-11-21T07:30:25;46.23;;;22.40;;
14613;SDS011;7393;51.446;6.800;2023-11-21T07:32:53;44.27;;;23.70;;
14613;SDS011;7393;51.446;6.800;2023-11-21T07:35:20;43.43;;;22.43;;
14613;SDS011;7393;51.446;6.800;2023-11-21T07:37:47;44.47;;;23.70;;
14613;SDS011;7393;51.446;6.800;2023-11-21T07:40:15;46.87;;;23.93;;
14613;SDS011;7393;51.446;6.800;2023-11-21T07:42:42;42.73;;;22.77;;
14613;SDS011;7393;51.446;6.800;2023-11-21T07:45:09;47.37;;;23.90;;
14613;SDS011;7393;51.446;6.800;2023-11-21T07:47:36;41.53;;;22.90;;
14613;SDS011;7393;51.446;6.800;2023-11-21T07:50:06;45.40;;;22.37;;
14613;SDS011;7393;51.446;6.800;2023-11-21T07:52:34;48.40;;;24.80;;
14613;SDS011;7393;51.446;6.800;2023-11-21T07:55:01;43.30;;;23.50;;
14613;SDS011;7393;51.446;6.800;2023-11-21T07:57:28;44.63;;;22.67;;
14613;SDS011;7393;51.446;6.800;2023-11-21T07:59:55;43.60;;;23.17;;
14613;SDS011;7393;51.446;6.800;2023-11-21T08:02:22;43.67;;;22.97;;
14613;SDS011;7393;51.446;6.800;2023-11-21T08:04:48;46.33;;;24.23;;
14613;SDS011;7393;51.446;6.800;2023-11-21T08:07:17;45.23;;;22.80;;
14613;SDS011;7393;51.446;6.800;2023-11-21T08:09:43;41.37;;;22.17;;
14613;SDS011;7393;51.446;6.800;2023-11-21T08:12:11;44.47;;;23.00;;
14613;SDS011;7393;51.446;6.800;2023-11-21T08:14:39;42.03;;;22.23;;
14613;SDS011;7393;51.446;6.800;2023-11-21T08:17:06;39.47;;;22.67;;
14613;SDS011;7393;51.446;6.800;2023-11-21T08:19:35;51.63;;;24.87;;
14613;SDS011;7393;51.446;6.800;2023-11-21T08:22:02;42.00;;;22.93;;
14613;SDS011;7393;51.446;6.800;2023-11-21T08:24:30;43.43;;;22.63;;
14613;SDS011;7393;51.446;6.800;2023-11-21T08:26:57;43.57;;;23.07;;
14613;SDS011;7393;51.446;6.800;2023-11-21T08:29:24;43.47;;;23.60;;
14613;SDS011;7393;51.446;6.800;2023-11-21T08:31:51;39.00;;;22.57;;
14613;SDS011;7393;51.446;6.800;2023-11-21T08:34:18;41.83;;;22.40;;
14613;SDS011;7393;51.446;6.800;2023-11-21T08:36:45;43.03;;;22.23;;
14613;SDS011;7393;51.446;6.800;2023-11-21T08:39:12;38.47;;;22.57;;
14613;SDS011;7393;51.446;6.800;2023-11-21T08:41:43;42.33;;;22.53;;
14613;SDS011;7393;51.446;6.800;2023-11-21T08:44:09;37.00;;;20.87;;
14613;SDS011;7393;51.446;6.800;2023-11-21T08:46:36;37.87;;;20.57;;
14613;SDS011;7393;51.446;6.800;2023-11-21T08:49:04;36.70;;;21.70;;
14613;SDS011;7393;51.446;6.800;2023-11-21T08:51:31;41.30;;;21.63;;
14613;SDS011;7393;51.446;6.800;2023-11-21T08:53:58;40.30;;;21.83;;
14613;SDS011;7393;51.446;6.800;2023-11-21T08:56:27;41.23;;;22.63;;
14613;SDS011;7393;51.446;6.800;2023-11-21T08:58:55;40.60;;;22.10;;
14613;SDS011;7393;51.446;6.800;2023-11-21T09:01:22;36.37;;;21.40;;
14613;SDS011;7393;51.446;6.800;2023-11-21T09:03:49;37.47;;;21.37;;
14613;SDS011;7393;51.446;6.800;2023-11-21T09:06:16;39.53;;;22.37;;
14613;SDS011;7393;51.446;6.800;2023-11-21T09:08:44;42.40;;;22.93;;
14613;SDS011;7393;51.446;6.800;2023-11-21T09:11:11;41.67;;;21.17;;
14613;SDS011;7393;51.446;6.800;2023-11-21T09:13:38;39.60;;;21.63;;
14613;SDS011;7393;51.446;6.800;2023-11-21T09:16:07;46.30;;;23.93;;
14613;SDS011;7393;51.446;6.800;2023-11-21T09:18:34;46.83;;;22.17;;
14613;SDS011;7393;51.446;6.800;2023-11-21T09:21:00;44.27;;;23.37;;
14613;SDS011;7393;51.446;6.800;2023-11-21T09:23:29;55.33;;;26.23;;
14613;SDS011;7393;51.446;6.800;2023-11-21T09:25:56;45.73;;;24.37;;
14613;SDS011;7393;51.446;6.800;2023-11-21T09:28:24;50.03;;;26.50;;
14613;SDS011;7393;51.446;6.800;2023-11-21T09:30:52;45.07;;;24.80;;
14613;SDS011;7393;51.446;6.800;2023-11-21T09:33:20;52.23;;;24.97;;
14613;SDS011;7393;51.446;6.800;2023-11-21T09:35:47;61.00;;;29.63;;
14613;SDS011;7393;51.446;6.800;2023-11-21T09:38:15;58.90;;;29.53;;
14613;SDS011;7393;51.446;6.800;2023-11-21T09:40:42;64.20;;;30.40;;
14613;SDS011;7393;51.446;6.800;2023-11-21T09:43:13;63.90;;;29.23;;
14613;SDS011;7393;51.446;6.800;2023-11-21T09:45:44;71.30;;;31.93;;
14613;SDS011;7393;51.446;6.800;2023-11-21T09:48:13;68.73;;;32.73;;
14613;SDS011;7393;51.446;6.800;2023-11-21T09:50:43;68.43;;;32.27;;
14613;SDS011;7393;51.446;6.800;2023-11-21T09:53:12;63.20;;;31.47;;
14613;SDS011;7393;51.446;6.800;2023-11-21T09:55:46;67.40;;;31.60;;
14613;SDS011;7393;51.446;6.800;2023-11-21T09:58:15;69.57;;;34.33;;
14613;SDS011;7393;51.446;6.800;2023-11-21T10:00:44;68.33;;;34.63;;
14613;SDS011;7393;51.446;6.800;2023-11-21T10:03:12;67.50;;;34.40;;
14613;SDS011;7393;51.446;6.800;2023-11-21T10:05:40;71.73;;;35.53;;
14613;SDS011;7393;51.446;6.800;2023-11-21T10:08:11;84.13;;;39.07;;
14613;SDS011;7393;51.446;6.800;2023-11-21T10:10:38;79.23;;;37.63;;
14613;SDS011;7393;51.446;6.800;2023-11-21T10:13:11;79.10;;;39.07;;
14613;SDS011;7393;51.446;6.800;2023-11-21T10:15:41;89.90;;;41.40;;
14613;SDS011;7393;51.446;6.800;2023-11-21T10:18:13;75.33;;;37.00;;
14613;SDS011;7393;51.446;6.800;2023-11-21T10:20:41;81.90;;;38.83;;
14613;SDS011;7393;51.446;6.800;2023-11-21T10:23:08;80.37;;;38.20;;
14613;SDS011;7393;51.446;6.800;2023-11-21T10:25:37;79.83;;;38.10;;
14613;SDS011;7393;51.446;6.800;2023-11-21T10:28:04;83.20;;;38.47;;
14613;SDS011;7393;51.446;6.800;2023-11-21T10:30:32;94.37;;;42.63;;
14613;SDS011;7393;51.446;6.800;2023-11-21T10:33:02;81.37;;;40.90;;
14613;SDS011;7393;51.446;6.800;2023-11-21T10:38:21;94.00;;;40.30;;
14613;SDS011;7393;51.446;6.800;2023-11-21T10:40:49;86.70;;;39.73;;
14613;SDS011;7393;51.446;6.800;2023-11-21T10:43:17;90.40;;;40.87;;
14613;SDS011;7393;51.446;6.800;2023-11-21T10:45:44;92.07;;;41.60;;
14613;SDS011;7393;51.446;6.800;2023-11-21T10:48:12;97.87;;;41.27;;
14613;SDS011;7393;51.446;6.800;2023-11-21T10:50:41;97.17;;;42.73;;
14613;SDS011;7393;51.446;6.800;2023-11-21T10:53:09;97.13;;;41.70;;
14613;SDS011;7393;51.446;6.800;2023-11-21T10:55:38;96.83;;;44.27;;
14613;SDS011;7393;51.446;6.800;2023-11-21T10:58:05;96.13;;;43.03;;
14613;SDS011;7393;51.446;6.800;2023-11-21T11:00:35;95.33;;;41.67;;
14613;SDS011;7393;51.446;6.800;2023-11-21T11:03:05;95.27;;;40.50;;
14613;SDS011;7393;51.446;6.800;2023-11-21T11:05:38;94.07;;;41.93;;
14613;SDS011;7393;51.446;6.800;2023-11-21T11:08:08;88.40;;;39.40;;
14613;SDS011;7393;51.446;6.800;2023-11-21T11:10:38;87.13;;;37.27;;
14613;SDS011;7393;51.446;6.800;2023-11-21T11:13:06;90.40;;;40.03;;
14613;SDS011;7393;51.446;6.800;2023-11-21T11:15:33;89.27;;;38.60;;
14613;SDS011;7393;51.446;6.800;2023-11-21T11:18:00;90.17;;;39.23;;
14613;SDS011;7393;51.446;6.800;2023-11-21T11:20:30;81.07;;;36.23;;
14613;SDS011;7393;51.446;6.800;2023-11-21T11:23:07;88.30;;;39.50;;
14613;SDS011;7393;51.446;6.800;2023-11-21T11:25:51;103.93;;;40.70;;
14613;SDS011;7393;51.446;6.800;2023-11-21T11:28:29;99.53;;;39.43;;
14613;SDS011;7393;51.446;6.800;2023-11-21T11:31:04;89.13;;;37.43;;
14613;SDS011;7393;51.446;6.800;2023-11-21T11:33:39;86.90;;;38.77;;
14613;SDS011;7393;51.446;6.800;2023-11-21T11:36:10;80.30;;;37.03;;
14613;SDS011;7393;51.446;6.800;2023-11-21T11:38:45;78.97;;;35.23;;
14613;SDS011;7393;51.446;6.800;2023-11-21T11:41:24;74.90;;;35.57;;
14613;SDS011;7393;51.446;6.800;2023-11-21T11:43:52;64.97;;;32.23;;
14613;SDS011;7393;51.446;6.800;2023-11-21T11:46:19;60.47;;;28.70;;
14613;SDS011;7393;51.446;6.800;2023-11-21T11:48:47;54.57;;;27.60;;
14613;SDS011;7393;51.446;6.800;2023-11-21T11:51:28;51.60;;;26.13;;
14613;SDS011;7393;51.446;6.800;2023-11-21T11:53:56;59.93;;;29.47;;
14613;SDS011;7393;51.446;6.800;2023-11-21T11:56:25;71.67;;;31.63;;
14613;SDS011;7393;51.446;6.800;2023-11-21T11:58:55;87.37;;;35.67;;
14613;SDS011;7393;51.446;6.800;2023-11-21T12:01:24;84.03;;;37.67;;
14613;SDS011;7393;51.446;6.800;2023-11-21T12:06:56;85.20;;;37.90;;
14613;SDS011;7393;51.446;6.800;2023-11-21T12:09:25;86.17;;;37.87;;
14613;SDS011;7393;51.446;6.800;2023-11-21T12:11:55;81.70;;;36.10;;
14613;SDS011;7393;51.446;6.800;2023-11-21T12:14:22;77.37;;;36.00;;
14613;SDS011;7393;51.446;6.800;2023-11-21T12:16:49;71.90;;;33.97;;
14613;SDS011;7393;51.446;6.800;2023-11-21T12:19:17;78.87;;;34.97;;
14613;SDS011;7393;51.446;6.800;2023-11-21T12:21:44;77.57;;;34.13;;
14613;SDS011;7393;51.446;6.800;2023-11-21T12:24:11;72.13;;;34.90;;
14613;SDS011;7393;51.446;6.800;2023-11-21T12:26:38;70.93;;;31.20;;
14613;SDS011;7393;51.446;6.800;2023-11-21T12:29:07;45.47;;;22.80;;
14613;SDS011;7393;51.446;6.800;2023-11-21T12:31:35;33.47;;;16.00;;
14613;SDS011;7393;51.446;6.800;2023-11-21T12:34:02;30.70;;;16.57;;
14613;SDS011;7393;51.446;6.800;2023-11-21T12:36:31;27.53;;;15.80;;
14613;SDS011;7393;51.446;6.800;2023-11-21T12:38:59;34.07;;;17.10;;
14613;SDS011;7393;51.446;6.800;2023-11-21T12:41:27;33.73;;;18.47;;
14613;SDS011;7393;51.446;6.800;2023-11-21T12:43:55;34.43;;;19.13;;
14613;SDS011;7393;51.446;6.800;2023-11-21T12:46:23;32.23;;;17.50;;
14613;SDS011;7393;51.446;6.800;2023-11-21T12:48:54;29.40;;;16.37;;
14613;SDS011;7393;51.446;6.800;2023-11-21T12:51:21;29.27;;;15.00;;
14613;SDS011;7393;51.446;6.800;2023-11-21T12:53:48;24.43;;;13.23;;
14613;SDS011;7393;51.446;6.800;2023-11-21T12:56:16;24.50;;;14.03;;
14613;SDS011;7393;51.446;6.800;2023-11-21T12:58:44;23.97;;;14.30;;
14613;SDS011;7393;51.446;6.800;2023-11-21T13:01:12;23.23;;;13.97;;
14613;SDS011;7393;51.446;6.800;2023-11-21T13:03:44;22.30;;;13.57;;
14613;SDS011;7393;51.446;6.800;2023-11-21T13:06:15;21.20;;;13.03;;
14613;SDS011;7393;51.446;6.800;2023-11-21T13:08:44;20.77;;;11.90;;
14613;SDS011;7393;51.446;6.800;2023-11-21T13:11:11;16.57;;;11.47;;
14613;SDS011;7393;51.446;6.800;2023-11-21T13:13:40;19.17;;;11.47;;
14613;SDS011;7393;51.446;6.800;2023-11-21T13:16:08;13.97;;;10.40;;
14613;SDS011;7393;51.446;6.800;2023-11-21T13:18:35;15.40;;;10.30;;
14613;SDS011;7393;51.446;6.800;2023-11-21T13:21:04;17.13;;;10.90;;
14613;SDS011;7393;51.446;6.800;2023-11-21T13:23:36;14.73;;;9.77;;
14613;SDS011;7393;51.446;6.800;2023-11-21T13:26:03;14.77;;;9.73;;
14613;SDS011;7393;51.446;6.800;2023-11-21T13:28:31;16.93;;;10.27;;
14613;SDS011;7393;51.446;6.800;2023-11-21T13:30:59;15.97;;;10.23;;
14613;SDS011;7393;51.446;6.800;2023-11-21T13:33:29;14.70;;;9.70;;
14613;SDS011;7393;51.446;6.800;2023-11-21T13:35:55;15.17;;;10.70;;
14613;SDS011;7393;51.446;6.800;2023-11-21T13:38:24;12.67;;;9.20;;
14613;SDS011;7393;51.446;6.800;2023-11-21T13:40:57;12.67;;;9.80;;
14613;SDS011;7393;51.446;6.800;2023-11-21T13:43:24;15.33;;;9.43;;
14613;SDS011;7393;51.446;6.800;2023-11-21T13:45:53;13.07;;;9.10;;
14613;SDS011;7393;51.446;6.800;2023-11-21T13:48:25;12.37;;;9.00;;
14613;SDS011;7393;51.446;6.800;2023-11-21T13:50:59;12.50;;;8.90;;
14613;SDS011;7393;51.446;6.800;2023-11-21T13:53:37;13.60;;;8.50;;
14613;SDS011;7393;51.446;6.800;2023-11-21T13:56:04;11.67;;;8.40;;
14613;SDS011;7393;51.446;6.800;2023-11-21T13:58:31;11.87;;;8.90;;
14613;SDS011;7393;51.446;6.800;2023-11-21T14:01:06;13.03;;;9.80;;
14613;SDS011;7393;51.446;6.800;2023-11-21T14:03:41;14.67;;;8.93;;
14613;SDS011;7393;51.446;6.800;2023-11-21T14:06:17;13.97;;;9.67;;
14613;SDS011;7393;51.446;6.800;2023-11-21T14:08:50;11.93;;;8.80;;
14613;SDS011;7393;51.446;6.800;2023-11-21T14:11:18;15.90;;;10.53;;
14613;SDS011;7393;51.446;6.800;2023-11-21T14:13:47;15.10;;;9.13;;
14613;SDS011;7393;51.446;6.800;2023-11-21T14:16:14;15.13;;;9.80;;
14613;SDS011;7393;51.446;6.800;2023-11-21T14:18:41;14.63;;;9.50;;
14613;SDS011;7393;51.446;6.800;2023-11-21T14:21:17;13.10;;;9.70;;
14613;SDS011;7393;51.446;6.800;2023-11-21T14:23:44;14.77;;;10.17;;
14613;SDS011;7393;51.446;6.800;2023-11-21T14:26:14;16.30;;;11.03;;
14613;SDS011;7393;51.446;6.800;2023-11-21T14:28:42;15.97;;;10.20;;
14613;SDS011;7393;51.446;6.800;2023-11-21T14:31:09;16.83;;;10.93;;
14613;SDS011;7393;51.446;6.800;2023-11-21T14:33:39;14.57;;;9.80;;
14613;SDS011;7393;51.446;6.800;2023-11-21T14:36:06;13.97;;;10.00;;
14613;SDS011;7393;51.446;6.800;2023-11-21T14:38:35;13.87;;;10.50;;
14613;SDS011;7393;51.446;6.800;2023-11-21T14:41:02;14.80;;;10.10;;
14613;SDS011;7393;51.446;6.800;2023-11-21T14:43:33;17.57;;;10.50;;
14613;SDS011;7393;51.446;6.800;2023-11-21T14:46:00;16.57;;;10.10;;
14613;SDS011;7393;51.446;6.800;2023-11-21T14:48:28;17.00;;;10.70;;